Time;durP1;ratioP1;P1;durP2;ratioP2;P2;SDS_P1;SDS_P2;PMS_P1;PMS_P2;Temp;Humidity;BMP_temperature;BMP_pressure;BME280_temperature;BME280_humidity;BME280_pressure;Samples;Min_cycle;Max_cycle;Signal;HPM_P1;HPM_P2
2024/01/25 00:00:03;;;;;;;;;;;;;;;15.71;40.90;101032.06;5058557;28;1047;-57
2024/01/25 00:02:30;;;;;;;;;;;;;;;16.42;39.72;101027.34;5058508;28;1219;-57
2024/01/25 00:04:56;;;;;;;;;;;;;;;17.55;37.42;101013.16;5058474;28;1076;-57
2024/01/25 00:07:21;;;;;;;;;;;;;;;16.53;39.17;101020.81;5058799;28;1044;-57
2024/01/25 00:09:47;;;;;;;;;;;;;;;15.89;40.82;101021.78;5058876;28;2037;-57
2024/01/25 00:12:12;;;;;;;;;;;;;;;15.67;41.08;101019.97;5058446;28;1210;-57
2024/01/25 00:14:38;;;;;;;;;;;;;;;16.26;39.81;101012.72;5058525;28;1131;-57
2024/01/25 00:17:04;;;;;;;;;;;;;;;17.47;37.38;101008.19;5058362;28;854;-58
2024/01/25 00:19:29;;;;;;;;;;;;;;;16.74;38.66;101010.75;5058290;28;997;-58
2024/01/25 00:21:55;;;;;;;;;;;;;;;16.09;40.24;101010.16;5058141;28;1051;-58
2024/01/25 00:24:20;;;;;;;;;;;;;;;15.70;41.19;101013.13;5058253;28;1114;-57
2024/01/25 00:26:46;;;;;;;;;;;;;;;15.87;40.86;101021.25;5057604;28;1138;-57
2024/01/25 00:29:11;;;;;;;;;;;;;;;17.28;37.94;101027.97;5057838;28;1910;-57
2024/01/25 00:31:37;;;;;;;;;;;;;;;17.28;37.63;101027.97;5058464;28;1113;-58
2024/01/25 00:34:02;;;;;;;;;;;;;;;16.32;39.52;101013.59;5057801;28;1071;-57
2024/01/25 00:36:28;;;;;;;;;;;;;;;15.95;40.62;101009.78;5058322;28;1116;-57
2024/01/25 00:38:54;;;;;;;;;;;;;;;15.63;41.16;101007.06;5058669;28;1049;-57
2024/01/25 00:41:19;;;;;;;;;;;;;;;16.82;38.64;101003.09;5039544;28;878;-58
2024/01/25 00:43:45;;;;;;;;;;;;;;;17.72;37.13;101004.63;5058112;28;1115;-57
2024/01/25 00:46:11;;;;;;;;;;;;;;;16.59;38.94;101006.03;5057986;28;1084;-57
2024/01/25 00:48:36;;;;;;;;;;;;;;;16.03;40.37;101003.81;5057529;28;1897;-57
2024/01/25 00:51:02;;;;;;;;;;;;;;;15.77;41.03;101005.50;5057758;28;1059;-57
2024/01/25 00:53:28;;;;;;;;;;;;;;;16.12;40.47;100986.84;5039676;28;886;-57
2024/01/25 00:55:54;;;;;;;;;;;;;;;17.48;37.29;100971.38;5057629;28;1068;-57
2024/01/25 00:58:19;;;;;;;;;;;;;;;16.80;38.46;100958.59;5057560;28;1218;-57
2024/01/25 01:00:45;;;;;;;;;;;;;;;16.07;40.13;100963.78;5057516;28;1143;-58
2024/01/25 01:03:11;;;;;;;;;;;;;;;15.71;40.69;100958.03;5057462;28;1051;-58
2024/01/25 01:05:36;;;;;;;;;;;;;;;16.58;39.29;100954.16;5057145;28;911;-58
2024/01/25 01:08:02;;;;;;;;;;;;;;;17.69;36.83;100952.94;5057584;28;1202;-58
2024/01/25 01:10:27;;;;;;;;;;;;;;;16.75;38.88;100952.00;5057236;28;1909;-58
2024/01/25 01:12:54;;;;;;;;;;;;;;;16.03;40.10;100943.47;5056990;28;1519;-58
2024/01/25 01:15:19;;;;;;;;;;;;;;;15.73;41.10;100944.88;5057732;28;1076;-58
2024/01/25 01:17:45;;;;;;;;;;;;;;;15.68;40.93;100933.06;5056684;28;1064;-58
2024/01/25 01:20:10;;;;;;;;;;;;;;;17.20;37.95;100921.34;5057533;28;1214;-58
2024/01/25 01:22:36;;;;;;;;;;;;;;;16.97;38.37;100920.78;5057278;28;1083;-58
2024/01/25 01:25:02;;;;;;;;;;;;;;;16.21;40.06;100911.97;5057074;28;1191;-58
2024/01/25 01:27:27;;;;;;;;;;;;;;;15.74;40.92;100902.69;5057164;28;1114;-57
2024/01/25 01:29:52;;;;;;;;;;;;;;;15.63;41.29;100895.47;5056585;28;1984;-57
2024/01/25 01:32:18;;;;;;;;;;;;;;;17.15;38.13;100891.91;5055889;28;1095;-57
2024/01/25 01:34:44;;;;;;;;;;;;;;;17.67;36.83;100886.38;5057018;28;1171;-57
2024/01/25 01:37:09;;;;;;;;;;;;;;;16.55;39.31;100886.03;5056216;28;1096;-57
2024/01/25 01:39:35;;;;;;;;;;;;;;;15.99;40.16;100887.50;5056853;28;1098;-57
2024/01/25 01:42:00;;;;;;;;;;;;;;;15.65;40.96;100882.31;5057374;28;1012;-57
2024/01/25 01:44:26;;;;;;;;;;;;;;;16.61;39.31;100884.97;5057030;28;1079;-57
2024/01/25 01:46:51;;;;;;;;;;;;;;;17.67;37.23;100872.63;5056573;28;1135;-57
2024/01/25 01:49:17;;;;;;;;;;;;;;;16.67;39.10;100870.13;5056550;28;1977;-57
2024/01/25 01:51:43;;;;;;;;;;;;;;;16.02;40.23;100869.66;5056592;28;1044;-57
2024/01/25 01:54:09;;;;;;;;;;;;;;;15.70;40.88;100865.91;5056552;28;1236;-58
2024/01/25 01:56:35;;;;;;;;;;;;;;;16.58;39.52;100863.56;5057104;28;1163;-57
2024/01/25 01:59:01;;;;;;;;;;;;;;;17.53;37.14;100864.13;5056801;28;1035;-58
2024/01/25 02:01:26;;;;;;;;;;;;;;;16.38;39.41;100880.78;5056827;28;1202;-58
2024/01/25 02:03:52;;;;;;;;;;;;;;;15.89;40.47;100874.56;5056589;28;1258;-57
2024/01/25 02:06:18;;;;;;;;;;;;;;;15.55;41.24;100865.81;5056524;28;1123;-57
2024/01/25 02:08:43;;;;;;;;;;;;;;;16.35;39.92;100860.19;5056028;28;1975;-56
2024/01/25 02:11:12;;;;;;;;;;;;;;;17.52;37.38;100848.75;5056590;28;1079;-57
2024/01/25 02:13:37;;;;;;;;;;;;;;;16.65;38.83;100853.13;5056433;28;1167;-57
2024/01/25 02:16:03;;;;;;;;;;;;;;;16.04;40.24;100851.84;5055683;28;1137;-56
2024/01/25 02:18:29;;;;;;;;;;;;;;;15.67;41.13;100844.53;5038794;28;1067;-56
2024/01/25 02:20:54;;;;;;;;;;;;;;;16.99;38.59;100825.16;5055926;28;1161;-57
2024/01/25 02:23:20;;;;;;;;;;;;;;;17.29;37.54;100834.47;5056428;28;1110;-57
2024/01/25 02:25:45;;;;;;;;;;;;;;;16.29;39.66;100827.53;5056581;28;997;-57
2024/01/25 02:28:11;;;;;;;;;;;;;;;15.85;40.54;100831.47;5056330;28;1116;-57
2024/01/25 02:30:36;;;;;;;;;;;;;;;15.69;40.98;100817.66;5055790;28;1984;-57
2024/01/25 02:33:02;;;;;;;;;;;;;;;17.09;38.16;100816.09;5056357;28;1118;-57
2024/01/25 02:35:27;;;;;;;;;;;;;;;17.33;37.47;100815.50;5056224;28;1056;-57
2024/01/25 02:37:53;;;;;;;;;;;;;;;16.28;39.74;100818.44;5056287;28;1091;-57
2024/01/25 02:40:18;;;;;;;;;;;;;;;15.85;40.64;100815.00;5055849;28;1238;-58
2024/01/25 02:42:44;;;;;;;;;;;;;;;15.56;41.38;100808.00;5056133;28;1156;-58
2024/01/25 02:45:09;;;;;;;;;;;;;;;16.59;39.24;100808.38;5059330;28;1130;-57
2024/01/25 02:47:35;;;;;;;;;;;;;;;17.56;37.17;100800.34;5060148;28;1163;-57
2024/01/25 02:50:00;;;;;;;;;;;;;;;16.57;39.15;100798.75;5059600;28;1906;-57
2024/01/25 02:52:26;;;;;;;;;;;;;;;15.95;40.64;100798.63;5059696;28;1067;-57
2024/01/25 02:54:51;;;;;;;;;;;;;;;15.64;41.01;100798.47;5060224;28;1076;-57
2024/01/25 02:57:17;;;;;;;;;;;;;;;15.60;41.17;100789.13;5060558;28;1175;-57
2024/01/25 02:59:42;;;;;;;;;;;;;;;17.12;38.09;100790.00;5060204;28;1115;-58
2024/01/25 03:02:08;;;;;;;;;;;;;;;17.44;37.34;100790.47;5059574;28;1215;-57
2024/01/25 03:04:33;;;;;;;;;;;;;;;16.37;39.62;100788.59;5059673;28;1136;-57
2024/01/25 03:06:59;;;;;;;;;;;;;;;15.85;40.83;100776.63;5060085;28;1072;-57
2024/01/25 03:09:24;;;;;;;;;;;;;;;15.61;41.23;100762.53;5059395;28;1969;-57
2024/01/25 03:11:50;;;;;;;;;;;;;;;17.02;38.35;100749.63;5059614;28;1231;-57
2024/01/25 03:14:16;;;;;;;;;;;;;;;17.50;37.39;100746.47;5059972;28;1080;-57
2024/01/25 03:16:41;;;;;;;;;;;;;;;16.42;39.70;100739.16;5059375;28;1104;-57
2024/01/25 03:19:07;;;;;;;;;;;;;;;15.92;40.70;100733.31;5059814;28;1140;-57
2024/01/25 03:21:32;;;;;;;;;;;;;;;15.63;41.28;100736.50;5059163;28;1031;-57
2024/01/25 03:23:58;;;;;;;;;;;;;;;16.96;38.48;100736.97;5059260;28;1064;-57
2024/01/25 03:26:23;;;;;;;;;;;;;;;17.31;37.54;100736.09;5059327;28;1499;-57
2024/01/25 03:28:49;;;;;;;;;;;;;;;16.32;39.81;100747.41;5059204;28;1914;-57
2024/01/25 03:31:14;;;;;;;;;;;;;;;15.85;40.67;100738.22;5058593;28;1060;-58
2024/01/25 03:33:39;;;;;;;;;;;;;;;15.81;40.97;100726.16;5059578;28;1171;-57
2024/01/25 03:36:05;;;;;;;;;;;;;;;17.31;37.81;100719.59;5059560;28;1122;-57
2024/01/25 03:38:31;;;;;;;;;;;;;;;17.04;38.15;100720.78;5058662;28;1039;-57
2024/01/25 03:40:58;;;;;;;;;;;;;;;16.28;39.90;100736.13;5059034;28;1075;-56
2024/01/25 03:43:23;;;;;;;;;;;;;;;15.80;40.87;100716.31;5058700;28;1068;-57
2024/01/25 03:45:49;;;;;;;;;;;;;;;16.37;39.90;100717.22;5059063;28;1012;-57
2024/01/25 03:48:15;;;;;;;;;;;;;;;17.60;37.50;100727.19;5059128;28;1183;-57
2024/01/25 03:50:40;;;;;;;;;;;;;;;16.90;38.47;100725.19;5059272;28;1986;-58
2024/01/25 03:53:06;;;;;;;;;;;;;;;16.17;39.86;100723.50;5058230;28;1091;-57
2024/01/25 03:55:32;;;;;;;;;;;;;;;15.80;40.71;100730.00;5057772;28;1124;-57
2024/01/25 03:57:57;;;;;;;;;;;;;;;15.66;41.11;100735.94;5058992;28;1166;-57
2024/01/25 04:00:23;;;;;;;;;;;;;;;17.17;37.99;100732.28;5058907;28;1052;-57
2024/01/25 04:02:48;;;;;;;;;;;;;;;17.32;37.76;100728.66;5058142;28;1276;-56
2024/01/25 04:05:14;;;;;;;;;;;;;;;16.32;39.89;100725.44;5058405;28;1126;-56
2024/01/25 04:07:40;;;;;;;;;;;;;;;15.88;40.87;100732.22;5058803;28;1124;-56
2024/01/25 04:10:06;;;;;;;;;;;;;;;15.85;40.95;100736.34;5058649;28;1984;-56
2024/01/25 04:12:33;;;;;;;;;;;;;;;17.35;37.77;100741.84;5058361;28;1075;-57
2024/01/25 04:14:58;;;;;;;;;;;;;;;16.79;38.61;100740.00;5058253;28;1143;-57
2024/01/25 04:17:24;;;;;;;;;;;;;;;16.02;40.31;100747.06;5058091;28;1542;-53
2024/01/25 04:19:49;;;;;;;;;;;;;;;15.70;40.89;100744.47;5058355;28;1186;-52
2024/01/25 04:22:15;;;;;;;;;;;;;;;16.58;39.39;100729.84;5058348;28;1142;-54
2024/01/25 04:24:40;;;;;;;;;;;;;;;17.70;37.04;100743.66;5057734;28;1147;-60
2024/01/25 04:27:06;;;;;;;;;;;;;;;16.58;39.30;100731.78;5058535;28;1088;-59
2024/01/25 04:29:31;;;;;;;;;;;;;;;15.99;40.48;100736.66;5058069;28;1902;-59
2024/01/25 04:31:57;;;;;;;;;;;;;;;15.71;41.05;100737.88;5058181;28;1195;-59
2024/01/25 04:34:22;;;;;;;;;;;;;;;16.28;40.00;100747.13;5044462;28;1021;-59
2024/01/25 04:36:48;;;;;;;;;;;;;;;17.53;37.53;100744.00;5057672;28;1146;-59
2024/01/25 04:39:14;;;;;;;;;;;;;;;16.74;38.60;100746.31;5058149;28;1147;-59
2024/01/25 04:41:39;;;;;;;;;;;;;;;16.06;40.24;100756.41;5058382;28;1164;-59
2024/01/25 04:44:05;;;;;;;;;;;;;;;15.74;40.99;100760.13;5057841;28;1060;-59
2024/01/25 04:46:36;;;;;;;;;;;;;;;15.82;40.85;100766.19;5057619;28;1119;-61
2024/01/25 04:49:02;;;;;;;;;;;;;;;17.33;37.67;100758.59;5057872;28;1993;-61
2024/01/25 04:51:28;;;;;;;;;;;;;;;17.03;38.21;100754.84;5057600;28;1210;-62
2024/01/25 04:53:53;;;;;;;;;;;;;;;16.21;40.00;100768.50;5057342;28;1064;-58
2024/01/25 04:56:18;;;;;;;;;;;;;;;15.78;40.70;100770.53;5057917;28;1111;-60
2024/01/25 04:58:44;;;;;;;;;;;;;;;15.77;41.00;100772.47;5057868;28;1075;-61
2024/01/25 05:01:10;;;;;;;;;;;;;;;17.24;37.87;100761.13;5051578;28;1105;-58
2024/01/25 05:03:36;;;;;;;;;;;;;;;17.60;36.92;100758.25;5053791;28;1202;-56
2024/01/25 05:06:01;;;;;;;;;;;;;;;16.50;39.36;100754.28;5056719;28;1055;-54
2024/01/25 05:08:27;;;;;;;;;;;;;;;15.97;40.24;100758.03;5056828;28;1040;-56
2024/01/25 05:10:52;;;;;;;;;;;;;;;15.68;40.77;100750.22;5056696;28;1901;-54
2024/01/25 05:13:19;;;;;;;;;;;;;;;16.08;40.15;100754.22;5057063;28;1052;-59
2024/01/25 05:15:45;;;;;;;;;;;;;;;17.42;37.58;100753.38;5056767;28;1016;-57
2024/01/25 05:18:10;;;;;;;;;;;;;;;17.17;37.88;100751.53;5056765;28;913;-58
2024/01/25 05:20:37;;;;;;;;;;;;;;;17.67;37.19;100741.47;5056293;28;1143;-57
2024/01/25 05:23:03;;;;;;;;;;;;;;;16.71;38.77;100764.16;5056453;28;1099;-58
2024/01/25 05:25:28;;;;;;;;;;;;;;;16.00;40.11;100757.47;5057759;28;2705;-58
2024/01/25 05:27:54;;;;;;;;;;;;;;;15.93;40.66;100751.44;5057030;28;1028;-58
2024/01/25 05:30:20;;;;;;;;;;;;;;;16.28;39.82;100752.59;5056312;28;1987;-59
2024/01/25 05:32:48;;;;;;;;;;;;;;;15.61;41.19;100744.16;5056429;28;1098;-60
2024/01/25 05:35:13;;;;;;;;;;;;;;;17.29;37.68;100735.53;5056033;28;1081;-58
2024/01/25 05:37:39;;;;;;;;;;;;;;;16.12;39.79;100742.69;5056332;28;1085;-58
2024/01/25 05:40:05;;;;;;;;;;;;;;;15.71;40.70;100744.22;5056211;28;1028;-58
2024/01/25 05:42:32;;;;;;;;;;;;;;;17.12;38.00;100743.28;5055886;28;906;-58
2024/01/25 05:44:57;;;;;;;;;;;;;;;15.95;40.09;100749.25;5055820;28;1075;-57
2024/01/25 05:47:23;;;;;;;;;;;;;;;16.79;38.79;100740.84;5056342;28;1117;-58
2024/01/25 05:49:48;;;;;;;;;;;;;;;16.69;38.48;100747.16;5055598;28;1979;-58
2024/01/25 05:52:14;;;;;;;;;;;;;;;15.97;40.10;100751.72;5056321;28;1068;-60
2024/01/25 05:54:39;;;;;;;;;;;;;;;15.76;40.94;100770.00;5064356;28;1834;-59
2024/01/25 05:57:05;;;;;;;;;;;;;;;17.26;37.74;100749.84;5037927;28;927;-60
2024/01/25 05:59:30;;;;;;;;;;;;;;;16.10;39.99;100766.84;5055837;28;1063;-60
2024/01/25 06:01:56;;;;;;;;;;;;;;;16.76;38.74;100757.88;5055987;28;1196;-60
2024/01/25 06:04:21;;;;;;;;;;;;;;;17.01;37.90;100750.72;5056142;28;996;-60
2024/01/25 06:06:47;;;;;;;;;;;;;;;16.10;40.00;100753.13;5055545;28;1108;-60
2024/01/25 06:09:14;;;;;;;;;;;;;;;16.54;39.19;100739.72;5055528;28;1910;-57
2024/01/25 06:11:40;;;;;;;;;;;;;;;17.24;37.38;100752.06;5055568;28;974;-59
2024/01/25 06:14:06;;;;;;;;;;;;;;;16.06;39.97;100755.56;5055619;28;1035;-57
2024/01/25 06:16:31;;;;;;;;;;;;;;;15.74;40.46;100759.31;5055685;28;1091;-57
2024/01/25 06:18:58;;;;;;;;;;;;;;;16.99;38.18;100758.44;5055030;28;1051;-58
2024/01/25 06:21:23;;;;;;;;;;;;;;;16.15;39.72;100762.19;5043280;28;1005;-57
2024/01/25 06:23:49;;;;;;;;;;;;;;;17.28;37.79;100767.69;5055667;28;2078;-57
2024/01/25 06:26:14;;;;;;;;;;;;;;;17.38;37.18;100775.09;5055613;28;1219;-57
2024/01/25 06:28:41;;;;;;;;;;;;;;;16.37;39.26;100777.59;5055991;28;1989;-57
2024/01/25 06:31:06;;;;;;;;;;;;;;;15.91;40.45;100778.31;5055501;28;1004;-58
2024/01/25 06:33:32;;;;;;;;;;;;;;;16.89;38.65;100767.50;5055550;28;1107;-58
2024/01/25 06:35:57;;;;;;;;;;;;;;;16.78;38.59;100752.91;5055656;28;1123;-57
2024/01/25 06:38:23;;;;;;;;;;;;;;;16.08;39.87;100773.41;5055265;28;1087;-57
2024/01/25 06:40:48;;;;;;;;;;;;;;;17.05;38.05;100768.28;5055327;28;1259;-58
2024/01/25 06:43:14;;;;;;;;;;;;;;;16.40;39.54;100766.88;5055617;28;1038;-58
2024/01/25 06:45:42;;;;;;;;;;;;;;;16.85;38.55;100763.63;5055131;28;1127;-58
2024/01/25 06:48:11;;;;;;;;;;;;;;;17.56;36.85;100759.13;5055144;28;1040;-58
2024/01/25 06:50:36;;;;;;;;;;;;;;;16.29;39.46;100758.94;5038056;28;1989;-57
2024/01/25 06:53:02;;;;;;;;;;;;;;;16.05;40.30;100760.25;5055823;28;1095;-58
2024/01/25 06:55:27;;;;;;;;;;;;;;;17.44;37.24;100757.47;5054876;28;2303;-58
2024/01/25 06:57:53;;;;;;;;;;;;;;;16.25;39.71;100753.97;5054880;28;1104;-57
2024/01/25 07:00:20;;;;;;;;;;;;;;;15.87;40.58;100738.81;5055269;28;1221;-57
2024/01/25 07:02:46;;;;;;;;;;;;;;;15.68;41.01;100733.78;5037541;28;1214;-58
2024/01/25 07:05:11;;;;;;;;;;;;;;;17.30;37.63;100739.94;5055176;28;1194;-57
2024/01/25 07:07:38;;;;;;;;;;;;;;;16.29;39.72;100754.25;5054957;28;1180;-58
2024/01/25 07:10:04;;;;;;;;;;;;;;;15.87;40.44;100749.78;5054982;28;1901;-58
2024/01/25 07:12:30;;;;;;;;;;;;;;;16.98;38.43;100748.53;5054789;28;1148;-60
2024/01/25 07:14:55;;;;;;;;;;;;;;;16.68;38.85;100752.91;5055381;28;1048;-60
2024/01/25 07:17:21;;;;;;;;;;;;;;;17.00;38.28;100752.66;5055126;28;1136;-60
2024/01/25 07:19:46;;;;;;;;;;;;;;;18.18;35.78;100745.06;5054826;28;870;-58
2024/01/25 07:22:14;;;;;;;;;;;;;;;16.77;38.83;100752.09;5055129;28;1028;-58
2024/01/25 07:24:40;;;;;;;;;;;;;;;16.16;39.80;100749.28;5055203;28;2552;-58
2024/01/25 07:27:05;;;;;;;;;;;;;;;15.89;40.59;100745.66;5054680;28;984;-58
2024/01/25 07:29:31;;;;;;;;;;;;;;;17.34;37.62;100746.53;5055513;28;1898;-59
2024/01/25 07:31:56;;;;;;;;;;;;;;;16.53;38.98;100734.53;5058296;28;929;-59
2024/01/25 07:34:22;;;;;;;;;;;;;;;17.00;38.25;100738.91;5058432;28;985;-59
2024/01/25 07:36:47;;;;;;;;;;;;;;;17.69;36.72;100738.44;5059083;28;1111;-58
2024/01/25 07:39:13;;;;;;;;;;;;;;;16.50;39.16;100733.13;5058709;28;1093;-58
2024/01/25 07:41:39;;;;;;;;;;;;;;;16.15;40.03;100737.50;5058986;28;1044;-58
2024/01/25 07:44:05;;;;;;;;;;;;;;;17.07;38.50;100731.19;5058001;28;845;-57
2024/01/25 07:46:31;;;;;;;;;;;;;;;16.75;38.66;100724.06;5058166;28;1076;-57
2024/01/25 07:48:56;;;;;;;;;;;;;;;16.13;40.08;100722.41;5058239;28;1901;-58
2024/01/25 07:51:22;;;;;;;;;;;;;;;16.31;40.03;100710.88;5058534;28;1008;-57
2024/01/25 07:53:48;;;;;;;;;;;;;;;16.99;38.19;100711.72;5058490;28;2476;-57
2024/01/25 07:56:13;;;;;;;;;;;;;;;16.08;40.06;100707.56;5058254;28;852;-58
2024/01/25 07:58:39;;;;;;;;;;;;;;;16.24;39.77;100707.59;5058143;28;997;-58
2024/01/25 08:01:07;;;;;;;;;;;;;;;17.03;38.04;100702.63;5058334;28;1183;-57
2024/01/25 08:03:33;;;;;;;;;;;;;;;16.06;40.10;100715.25;5044944;28;1165;-58
2024/01/25 08:05:59;;;;;;;;;;;;;;;16.25;40.07;100731.19;5058452;28;1008;-58
2024/01/25 08:08:24;;;;;;;;;;;;;;;16.94;38.29;100720.78;5057967;28;912;-57
2024/01/25 08:10:50;;;;;;;;;;;;;;;16.15;39.86;100742.16;5040573;28;1988;-57
2024/01/25 08:13:15;;;;;;;;;;;;;;;17.58;37.39;100734.91;5057726;28;1175;-58
2024/01/25 08:15:41;;;;;;;;;;;;;;;16.64;39.01;100738.91;5058334;28;1035;-57
2024/01/25 08:18:06;;;;;;;;;;;;;;;16.08;39.98;100748.72;5057993;28;1214;-58
2024/01/25 08:20:32;;;;;;;;;;;;;;;17.23;37.80;100751.22;5056809;28;892;-58
2024/01/25 08:22:57;;;;;;;;;;;;;;;17.21;37.68;100758.13;5057847;28;1563;-58
2024/01/25 08:25:23;;;;;;;;;;;;;;;16.28;39.54;100752.59;5057529;28;2484;-57
2024/01/25 08:27:49;;;;;;;;;;;;;;;15.96;40.54;100753.63;5057480;28;1130;-57
2024/01/25 08:30:14;;;;;;;;;;;;;;;17.26;37.93;100744.34;5057662;28;1910;-58
2024/01/25 08:32:40;;;;;;;;;;;;;;;16.81;38.57;100752.34;5057790;28;1174;-58
2024/01/25 08:35:06;;;;;;;;;;;;;;;16.10;40.13;100756.69;5057626;28;1050;-58
2024/01/25 08:37:32;;;;;;;;;;;;;;;17.07;38.16;100749.63;5057445;28;1099;-57
2024/01/25 08:39:58;;;;;;;;;;;;;;;17.04;38.27;100745.50;5057617;28;1008;-59
2024/01/25 08:42:23;;;;;;;;;;;;;;;16.19;40.09;100759.72;5056775;28;1079;-59
2024/01/25 08:44:49;;;;;;;;;;;;;;;17.21;38.00;100758.94;5056839;28;866;-59
2024/01/25 08:47:15;;;;;;;;;;;;;;;17.00;38.39;100752.66;5057151;28;1115;-59
2024/01/25 08:49:41;;;;;;;;;;;;;;;16.18;40.00;100752.59;5057223;28;1977;-59
2024/01/25 08:52:06;;;;;;;;;;;;;;;17.36;37.86;100771.81;5056832;28;1020;-59
2024/01/25 08:54:32;;;;;;;;;;;;;;;17.01;38.10;100754.31;5057063;28;1947;-59
2024/01/25 08:56:57;;;;;;;;;;;;;;;16.33;39.93;100769.09;5057005;28;1063;-59
2024/01/25 08:59:23;;;;;;;;;;;;;;;17.07;38.43;100772.41;5057026;28;1040;-59
2024/01/25 09:01:48;;;;;;;;;;;;;;;16.97;38.64;100769.69;5056603;28;1085;-57
2024/01/25 09:04:14;;;;;;;;;;;;;;;16.30;39.71;100768.78;5057664;28;1059;-57
2024/01/25 09:06:39;;;;;;;;;;;;;;;16.74;38.95;100760.06;5056921;28;1500;-57
2024/01/25 09:09:05;;;;;;;;;;;;;;;16.73;38.76;100752.91;5056662;28;1910;-58
2024/01/25 09:11:31;;;;;;;;;;;;;;;16.50;39.77;100754.28;5056295;28;1099;-58
2024/01/25 09:13:59;;;;;;;;;;;;;;;17.83;36.81;100746.91;5056265;28;1099;-58
2024/01/25 09:16:25;;;;;;;;;;;;;;;16.55;39.52;100746.03;5056548;28;1017;-58
2024/01/25 09:18:50;;;;;;;;;;;;;;;16.48;39.59;100750.97;5056612;28;993;-58
2024/01/25 09:21:16;;;;;;;;;;;;;;;17.72;37.14;100746.91;5056001;28;1047;-58
2024/01/25 09:23:41;;;;;;;;;;;;;;;16.52;39.61;100754.81;5056687;28;1873;-57
2024/01/25 09:26:07;;;;;;;;;;;;;;;16.13;40.34;100761.66;5056166;28;1040;-57
2024/01/25 09:28:33;;;;;;;;;;;;;;;16.84;38.99;100757.28;5056609;28;989;-57
2024/01/25 09:30:58;;;;;;;;;;;;;;;17.03;38.20;100757.59;5056557;28;1991;-57
2024/01/25 09:33:24;;;;;;;;;;;;;;;16.91;38.79;100748.81;5056464;28;947;-57
2024/01/25 09:35:50;;;;;;;;;;;;;;;18.36;36.09;100744.38;5056616;28;1056;-57
2024/01/25 09:38:15;;;;;;;;;;;;;;;17.02;38.58;100733.13;5056497;28;1096;-57
2024/01/25 09:40:41;;;;;;;;;;;;;;;16.37;40.09;100734.50;5056160;28;1250;-57
2024/01/25 09:43:06;;;;;;;;;;;;;;;16.13;40.23;100738.84;5056116;28;1027;-57
2024/01/25 09:45:32;;;;;;;;;;;;;;;16.69;39.19;100738.06;5038149;28;1076;-57
2024/01/25 09:47:57;;;;;;;;;;;;;;;16.90;38.48;100726.03;5037900;28;1128;-57
2024/01/25 09:50:23;;;;;;;;;;;;;;;16.24;40.24;100735.03;5056125;28;1909;-58
2024/01/25 09:52:54;;;;;;;;;;;;;;;17.78;37.17;100722.97;5055879;28;1209;-58
2024/01/25 09:55:20;;;;;;;;;;;;;;;16.56;39.51;100725.72;5062965;28;2450;-60
2024/01/25 09:57:46;;;;;;;;;;;;;;;16.18;40.28;100725.97;5050537;28;1119;-58
2024/01/25 10:00:12;;;;;;;;;;;;;;;16.97;38.84;100725.75;5054402;28;1016;-58
2024/01/25 10:02:38;;;;;;;;;;;;;;;16.81;38.85;100721.34;5055602;28;1238;-57
2024/01/25 10:05:04;;;;;;;;;;;;;;;16.05;40.59;100721.84;5055991;28;1164;-58
2024/01/25 10:07:39;;;;;;;;;;;;;;;17.49;37.82;100709.06;5055992;28;1135;-58
2024/01/25 10:10:05;;;;;;;;;;;;;;;16.29;40.10;100709.53;5056040;28;1910;-58
2024/01/25 10:12:31;;;;;;;;;;;;;;;16.11;40.53;100721.84;5055830;28;1280;-57
2024/01/25 10:14:56;;;;;;;;;;;;;;;16.94;38.55;100709.78;5055848;28;1098;-58
2024/01/25 10:17:22;;;;;;;;;;;;;;;16.16;40.19;100705.38;5037905;28;1068;-58
2024/01/25 10:19:47;;;;;;;;;;;;;;;17.68;37.51;100710.09;5055456;28;1044;-58
2024/01/25 10:22:14;;;;;;;;;;;;;;;16.84;39.08;100709.78;5056030;28;1053;-58
2024/01/25 10:24:39;;;;;;;;;;;;;;;16.20;40.18;100701.84;5056444;28;2695;-58
2024/01/25 10:27:05;;;;;;;;;;;;;;;16.01;40.85;100709.75;5055511;28;1148;-58
2024/01/25 10:29:31;;;;;;;;;;;;;;;17.14;38.50;100691.63;5037696;28;1898;-58
2024/01/25 10:31:56;;;;;;;;;;;;;;;16.23;40.43;100692.25;5055207;28;1071;-58
2024/01/25 10:34:21;;;;;;;;;;;;;;;17.94;36.92;100691.56;5056108;28;988;-59
2024/01/25 10:36:47;;;;;;;;;;;;;;;17.20;38.16;100694.06;5055595;28;997;-57
2024/01/25 10:39:14;;;;;;;;;;;;;;;16.40;40.15;100690.06;5027922;28;1302;-57
2024/01/25 10:41:40;;;;;;;;;;;;;;;16.11;40.68;100695.25;5055477;28;1067;-57
2024/01/25 10:44:06;;;;;;;;;;;;;;;17.41;38.19;100688.50;5055378;28;1084;-56
2024/01/25 10:46:32;;;;;;;;;;;;;;;16.54;39.60;100684.03;5037893;28;1088;-56
2024/01/25 10:48:58;;;;;;;;;;;;;;;16.14;40.72;100693.88;5055236;28;1963;-57
2024/01/25 10:51:24;;;;;;;;;;;;;;;17.44;38.10;100683.25;5055509;28;1016;-57
2024/01/25 10:53:50;;;;;;;;;;;;;;;17.01;38.77;100691.13;5057253;28;1783;-57
2024/01/25 10:56:16;;;;;;;;;;;;;;;16.25;40.19;100682.63;5046989;28;1194;-57
2024/01/25 10:58:41;;;;;;;;;;;;;;;15.98;41.05;100693.03;5037475;28;1024;-57
2024/01/25 11:01:13;;;;;;;;;;;;;;;17.43;38.27;100687.13;5055164;28;1053;-59
2024/01/25 11:03:39;;;;;;;;;;;;;;;16.38;39.96;100692.25;5054920;28;1224;-60
2024/01/25 11:06:10;;;;;;;;;;;;;;;15.99;40.67;100689.19;5057886;28;1275;-60
2024/01/25 11:08:38;;;;;;;;;;;;;;;15.78;41.41;100694.63;5058735;28;1433;-59
2024/01/25 11:11:05;;;;;;;;;;;;;;;16.89;39.13;100679.59;5059188;28;1914;-60
2024/01/25 11:13:31;;;;;;;;;;;;;;;15.99;40.92;100687.28;5059047;28;1087;-59
2024/01/25 11:15:57;;;;;;;;;;;;;;;15.73;41.46;100684.44;5058792;28;1091;-59
2024/01/25 11:18:24;;;;;;;;;;;;;;;17.45;37.96;100684.91;5059127;28;1069;-58
2024/01/25 11:20:50;;;;;;;;;;;;;;;16.42;39.88;100679.63;5058649;28;1128;-58
2024/01/25 11:23:15;;;;;;;;;;;;;;;16.53;39.81;100687.84;5058785;28;1003;-59
2024/01/25 11:25:43;;;;;;;;;;;;;;;17.24;38.17;100686.09;5041353;28;2590;-60
2024/01/25 11:28:09;;;;;;;;;;;;;;;16.23;40.40;100675.78;5058992;28;1102;-59
2024/01/25 11:30:35;;;;;;;;;;;;;;;16.03;40.93;100680.16;5058510;28;1964;-59
2024/01/25 11:33:00;;;;;;;;;;;;;;;17.28;38.35;100681.69;5058444;28;1083;-59
2024/01/25 11:35:26;;;;;;;;;;;;;;;16.58;39.54;100674.94;5058716;28;1041;-58
2024/01/25 11:37:52;;;;;;;;;;;;;;;16.07;40.92;100675.78;5058388;28;1016;-59
2024/01/25 11:40:18;;;;;;;;;;;;;;;17.42;38.11;100674.47;5058854;28;1064;-58
2024/01/25 11:42:43;;;;;;;;;;;;;;;16.27;40.25;100674.16;5058348;28;1071;-59
2024/01/25 11:45:12;;;;;;;;;;;;;;;16.25;40.58;100671.66;5058515;28;1071;-58
2024/01/25 11:47:38;;;;;;;;;;;;;;;17.78;37.46;100665.22;5057785;28;941;-58
2024/01/25 11:50:04;;;;;;;;;;;;;;;16.45;40.16;100675.50;5058027;28;1988;-58
2024/01/25 11:52:31;;;;;;;;;;;;;;;16.06;40.97;100674.13;5040394;28;1202;-58
2024/01/25 11:54:57;;;;;;;;;;;;;;;16.71;39.82;100678.22;5058057;28;1830;-57
2024/01/25 11:57:22;;;;;;;;;;;;;;;17.23;38.28;100670.72;5057582;28;1206;-57
2024/01/25 11:59:49;;;;;;;;;;;;;;;16.34;40.36;100671.94;5040468;28;1100;-58
2024/01/25 12:02:15;;;;;;;;;;;;;;;17.09;39.06;100671.28;5040433;28;1033;-56
2024/01/25 12:04:40;;;;;;;;;;;;;;;16.74;39.62;100675.75;5040252;28;1093;-57
2024/01/25 12:07:06;;;;;;;;;;;;;;;16.21;40.63;100670.56;5058036;28;1039;-58
2024/01/25 12:09:31;;;;;;;;;;;;;;;17.75;37.49;100671.28;5039834;28;1910;-58
2024/01/25 12:11:57;;;;;;;;;;;;;;;16.55;39.80;100674.66;5058196;28;1076;-58
2024/01/25 12:14:25;;;;;;;;;;;;;;;16.25;40.48;100674.41;5058056;28;1138;-57
2024/01/25 12:16:51;;;;;;;;;;;;;;;17.26;38.41;100684.72;5057155;28;1099;-60
2024/01/25 12:19:16;;;;;;;;;;;;;;;16.41;40.40;100679.88;5057824;28;1092;-60
2024/01/25 12:21:45;;;;;;;;;;;;;;;17.92;37.46;100679.19;5058053;28;1100;-60
2024/01/25 12:24:10;;;;;;;;;;;;;;;17.11;38.87;100687.53;5057637;28;2272;-60
2024/01/25 12:26:36;;;;;;;;;;;;;;;16.51;40.02;100674.41;5057822;28;996;-60
2024/01/25 12:29:02;;;;;;;;;;;;;;;16.33;40.40;100678.53;5056941;28;1973;-60
2024/01/25 12:31:28;;;;;;;;;;;;;;;18.06;37.03;100674.72;5039960;28;1084;-60
2024/01/25 12:33:54;;;;;;;;;;;;;;;16.75;39.80;100671.91;5057271;28;1028;-57
2024/01/25 12:36:19;;;;;;;;;;;;;;;16.35;40.36;100670.81;5057754;28;1032;-58
2024/01/25 12:38:45;;;;;;;;;;;;;;;16.79;39.94;100663.09;5057236;28;1083;-57